Time;durP1;ratioP1;P1;durP2;ratioP2;P2;SDS_P1;SDS_P2;PMS_P1;PMS_P2;Temp;Humidity;BMP_temperature;BMP_pressure;BME280_temperature;BME280_humidity;BME280_pressure;Samples;Min_cycle;Max_cycle;Signal;HPM_P1;HPM_P2
2021/01/05 00:02:44;;;;;;;29.98;15.05;;;;;;;;;;10481693;27;20050;-62
2021/01/05 00:07:43;;;;;;;24.17;15.63;;;;;;;;;;10482493;27;20070;-62
2021/01/05 00:12:40;;;;;;;27.10;15.52;;;;;;;;;;10482824;27;20070;-62
2021/01/05 00:17:37;;;;;;;25.48;16.15;;;;;;;;;;10481643;27;20054;-63
2021/01/05 00:22:35;;;;;;;27.73;16.92;;;;;;;;;;10482488;27;20031;-63
2021/01/05 00:27:33;;;;;;;24.50;17.88;;;;;;;;;;10481373;27;20527;-63
2021/01/05 00:32:30;;;;;;;26.55;17.63;;;;;;;;;;10482394;27;20066;-62
2021/01/05 00:37:30;;;;;;;30.25;20.13;;;;;;;;;;10482341;27;20071;-62
2021/01/05 00:42:27;;;;;;;29.83;19.52;;;;;;;;;;10481115;27;20073;-62
2021/01/05 00:47:25;;;;;;;27.63;19.95;;;;;;;;;;10481619;27;20081;-63
2021/01/05 00:52:23;;;;;;;27.85;21.38;;;;;;;;;;10481402;27;20081;-62
2021/01/05 00:57:21;;;;;;;33.85;18.83;;;;;;;;;;10482186;27;20077;-61
2021/01/05 01:02:20;;;;;;;26.40;18.42;;;;;;;;;;10481691;27;20047;-62
2021/01/05 01:07:20;;;;;;;24.40;18.40;;;;;;;;;;10462848;27;20082;-62
2021/01/05 01:12:18;;;;;;;27.65;18.67;;;;;;;;;;10481721;27;20047;-62
2021/01/05 01:17:18;;;;;;;23.80;17.67;;;;;;;;;;10470306;27;20054;-62
2021/01/05 01:22:17;;;;;;;22.85;16.52;;;;;;;;;;10470445;27;20076;-62
2021/01/05 01:27:15;;;;;;;21.63;16.15;;;;;;;;;;10488268;27;20082;-62
2021/01/05 01:32:13;;;;;;;16.92;12.93;;;;;;;;;;10487840;27;20423;-62
2021/01/05 01:37:12;;;;;;;22.95;11.60;;;;;;;;;;10469794;27;20543;-61
2021/01/05 01:42:11;;;;;;;15.75;11.68;;;;;;;;;;10469435;27;20074;-62
2021/01/05 01:47:12;;;;;;;17.90;12.23;;;;;;;;;;10469600;27;20054;-62
2021/01/05 01:52:10;;;;;;;19.50;11.57;;;;;;;;;;10469670;27;20500;-62
2021/01/05 01:57:31;;;;;;;18.63;12.60;;;;;;;;;;10487666;27;20046;-62
2021/01/05 02:02:34;;;;;;;15.18;11.30;;;;;;;;;;10469276;27;20042;-62
2021/01/05 02:07:47;;;;;;;17.58;11.45;;;;;;;;;;10487928;27;20090;-62
2021/01/05 02:13:00;;;;;;;16.23;11.07;;;;;;;;;;10469357;27;20054;-61
2021/01/05 02:18:20;;;;;;;14.38;10.45;;;;;;;;;;10488118;27;20038;-61
2021/01/05 02:23:37;;;;;;;19.52;11.38;;;;;;;;;;10468910;27;20043;-61
2021/01/05 02:28:40;;;;;;;15.27;11.18;;;;;;;;;;10467267;27;20066;-61
2021/01/05 02:33:44;;;;;;;16.30;11.50;;;;;;;;;;10468342;27;20047;-62
2021/01/05 02:38:52;;;;;;;17.33;11.75;;;;;;;;;;10468271;27;20407;-62
2021/01/05 02:44:22;;;;;;;15.50;11.00;;;;;;;;;;10490156;27;20415;-62
2021/01/05 02:49:43;;;;;;;18.23;10.45;;;;;;;;;;10492904;27;20078;-62
2021/01/05 02:55:17;;;;;;;14.63;10.52;;;;;;;;;;10491827;27;20047;-62
2021/01/05 03:00:48;;;;;;;15.38;11.70;;;;;;;;;;10490594;27;20059;-62
2021/01/05 03:06:25;;;;;;;17.13;11.93;;;;;;;;;;10488956;27;20074;-63
2021/01/05 03:11:43;;;;;;;12.20;9.63;;;;;;;;;;10487396;27;20043;-63
2021/01/05 03:17:18;;;;;;;13.73;10.25;;;;;;;;;;10451679;27;20404;-63
2021/01/05 03:22:36;;;;;;;11.45;10.00;;;;;;;;;;10486099;27;20419;-63
2021/01/05 03:27:54;;;;;;;12.30;9.45;;;;;;;;;;10496111;27;20086;-62
2021/01/05 03:33:11;;;;;;;18.13;9.65;;;;;;;;;;10495397;27;20047;-63
2021/01/05 03:38:27;;;;;;;11.13;9.20;;;;;;;;;;10493941;27;20078;-63
2021/01/05 03:44:03;;;;;;;13.23;10.27;;;;;;;;;;10316626;28;20098;-63
2021/01/05 03:49:20;;;;;;;13.95;10.73;;;;;;;;;;10455525;27;20090;-63
2021/01/05 03:54:36;;;;;;;16.17;10.25;;;;;;;;;;10490895;27;20396;-61
2021/01/05 03:59:52;;;;;;;;;;;;;;;;;;10490815;27;20050;-61
2021/01/05 04:05:09;;;;;;;16.63;13.98;;;;;;;;;;10488551;27;19919;-61
2021/01/05 04:10:07;;;;;;;15.73;14.07;;;;;;;;;;10483804;27;20576;-61
2021/01/05 04:15:05;;;;;;;26.55;19.90;;;;;;;;;;10482616;27;20073;-62
2021/01/05 04:20:03;;;;;;;20.92;16.50;;;;;;;;;;10482816;27;20057;-62
2021/01/05 04:25:01;;;;;;;21.48;17.08;;;;;;;;;;10482607;27;20070;-61
2021/01/05 04:29:58;;;;;;;24.27;17.27;;;;;;;;;;10483243;27;20070;-62
2021/01/05 04:34:56;;;;;;;17.33;15.10;;;;;;;;;;10483193;27;20331;-62
2021/01/05 04:39:53;;;;;;;21.80;16.30;;;;;;;;;;10479068;27;20078;-61
2021/01/05 04:44:55;;;;;;;22.00;16.50;;;;;;;;;;10477610;27;20078;-61
2021/01/05 04:50:01;;;;;;;22.08;16.77;;;;;;;;;;10482036;27;20089;-61
2021/01/05 04:55:01;;;;;;;17.40;14.82;;;;;;;;;;10487733;27;20074;-62
2021/01/05 05:00:04;;;;;;;20.50;15.93;;;;;;;;;;10489887;27;20054;-61
2021/01/05 05:05:03;;;;;;;22.13;17.50;;;;;;;;;;10491135;27;20035;-62
2021/01/05 05:10:03;;;;;;;18.50;14.57;;;;;;;;;;10489245;27;20109;-61
2021/01/05 05:15:04;;;;;;;13.93;12.43;;;;;;;;;;10490254;27;20416;-63
2021/01/05 05:20:06;;;;;;;19.10;17.05;;;;;;;;;;10490527;27;20050;-63
2021/01/05 05:25:05;;;;;;;15.52;12.52;;;;;;;;;;10490257;27;20416;-61
2021/01/05 05:30:06;;;;;;;12.02;10.35;;;;;;;;;;10469565;27;20082;-61
2021/01/05 05:35:34;;;;;;;14.48;11.43;;;;;;;;;;10489720;27;20039;-62
2021/01/05 05:40:37;;;;;;;13.88;11.38;;;;;;;;;;10489550;27;20416;-62
2021/01/05 05:45:39;;;;;;;15.95;12.52;;;;;;;;;;10469520;27;20065;-61
2021/01/05 05:50:40;;;;;;;11.55;10.35;;;;;;;;;;10488455;27;20045;-62
2021/01/05 05:55:42;;;;;;;10.40;9.23;;;;;;;;;;10486602;27;20053;-62
2021/01/05 06:00:43;;;;;;;11.80;9.23;;;;;;;;;;10483796;27;20070;-62
2021/01/05 06:05:41;;;;;;;11.38;9.05;;;;;;;;;;10483047;27;20073;-62
2021/01/05 06:10:38;;;;;;;9.63;8.02;;;;;;;;;;10486401;27;20043;-62
2021/01/05 06:15:35;;;;;;;26.42;16.45;;;;;;;;;;10487695;27;20073;-62
2021/01/05 06:20:33;;;;;;;11.05;9.07;;;;;;;;;;10488034;27;20050;-62
2021/01/05 06:25:31;;;;;;;11.75;8.07;;;;;;;;;;10488192;27;20046;-62
2021/01/05 06:30:28;;;;;;;7.28;5.18;;;;;;;;;;10487085;27;20042;-63
2021/01/05 06:35:25;;;;;;;6.68;5.68;;;;;;;;;;10487520;27;20062;-62
2021/01/05 06:40:25;;;;;;;13.80;7.50;;;;;;;;;;10486711;27;20155;-63
2021/01/05 06:45:23;;;;;;;54.22;21.77;;;;;;;;;;10487224;27;20070;-61
2021/01/05 06:50:22;;;;;;;6.80;6.07;;;;;;;;;;10486794;27;20070;-62
2021/01/05 06:55:20;;;;;;;7.03;5.75;;;;;;;;;;10486104;27;20063;-63
2021/01/05 07:00:20;;;;;;;6.78;5.90;;;;;;;;;;10485512;27;20074;-62
2021/01/05 07:05:17;;;;;;;7.30;5.15;;;;;;;;;;10486218;27;20407;-62
2021/01/05 07:10:15;;;;;;;5.90;4.63;;;;;;;;;;10486056;27;20070;-62
2021/01/05 07:15:14;;;;;;;6.80;5.50;;;;;;;;;;10484550;27;20043;-63
2021/01/05 07:20:13;;;;;;;5.07;4.00;;;;;;;;;;10485727;27;20043;-61
2021/01/05 07:25:11;;;;;;;4.57;4.18;;;;;;;;;;10484534;27;20090;-62
2021/01/05 07:30:09;;;;;;;5.72;4.72;;;;;;;;;;10484141;27;20089;-62
2021/01/05 07:35:07;;;;;;;5.65;5.05;;;;;;;;;;10484766;27;20435;-63
2021/01/05 07:40:06;;;;;;;5.78;5.22;;;;;;;;;;10484958;27;20051;-63
2021/01/05 07:45:05;;;;;;;12.38;11.10;;;;;;;;;;10484951;27;20058;-62
2021/01/05 07:50:05;;;;;;;41.28;25.42;;;;;;;;;;10483519;27;20571;-62
2021/01/05 07:55:04;;;;;;;80.95;39.63;;;;;;;;;;10484313;27;20034;-62
2021/01/05 08:00:04;;;;;;;12.82;8.82;;;;;;;;;;10484291;27;20066;-62
2021/01/05 08:05:11;;;;;;;10.38;8.70;;;;;;;;;;10488553;27;20416;-63
2021/01/05 08:10:09;;;;;;;19.30;13.73;;;;;;;;;;10483747;27;20480;-62
2021/01/05 08:15:08;;;;;;;10.60;9.50;;;;;;;;;;10482805;27;20276;-61
2021/01/05 08:20:06;;;;;;;13.52;9.85;;;;;;;;;;10483752;27;20042;-63
2021/01/05 08:25:03;;;;;;;18.85;11.50;;;;;;;;;;10482716;27;20070;-62
2021/01/05 08:30:01;;;;;;;19.05;13.82;;;;;;;;;;10483138;27;20078;-62
2021/01/05 08:34:59;;;;;;;17.85;12.68;;;;;;;;;;10483423;27;20034;-62
2021/01/05 08:39:57;;;;;;;35.25;23.15;;;;;;;;;;10482019;27;20042;-63
2021/01/05 08:44:54;;;;;;;15.85;13.00;;;;;;;;;;10482432;27;20065;-62
2021/01/05 08:49:52;;;;;;;37.30;24.40;;;;;;;;;;10482193;27;20078;-62
2021/01/05 08:54:50;;;;;;;41.58;23.30;;;;;;;;;;10482799;27;20043;-63
2021/01/05 08:59:48;;;;;;;12.15;8.00;;;;;;;;;;10482880;27;20046;-62
2021/01/05 09:04:45;;;;;;;9.23;7.32;;;;;;;;;;10482268;27;20058;-62
2021/01/05 09:09:42;;;;;;;13.60;10.40;;;;;;;;;;10481403;27;20081;-63
2021/01/05 09:14:41;;;;;;;10.70;8.20;;;;;;;;;;10482507;27;20404;-63
2021/01/05 09:19:38;;;;;;;55.13;29.35;;;;;;;;;;10482414;27;20511;-63
2021/01/05 09:24:36;;;;;;;46.35;26.25;;;;;;;;;;10481601;27;20051;-63
2021/01/05 09:29:33;;;;;;;28.92;17.52;;;;;;;;;;10481412;27;20105;-62
2021/01/05 09:34:31;;;;;;;17.33;11.18;;;;;;;;;;10481853;27;20082;-62
2021/01/05 09:39:32;;;;;;;13.52;10.38;;;;;;;;;;10489088;27;20046;-62
2021/01/05 09:44:30;;;;;;;10.77;8.85;;;;;;;;;;10489411;27;20534;-63
2021/01/05 09:49:27;;;;;;;20.35;14.18;;;;;;;;;;10488673;27;20452;-63
2021/01/05 09:54:25;;;;;;;12.73;8.23;;;;;;;;;;10488600;27;20297;-62
2021/01/05 09:59:25;;;;;;;8.93;7.57;;;;;;;;;;10488989;27;20502;-63
2021/01/05 10:04:25;;;;;;;9.18;7.45;;;;;;;;;;10488554;27;20054;-62
2021/01/05 10:09:23;;;;;;;12.48;8.77;;;;;;;;;;10487696;27;20082;-63
2021/01/05 10:14:21;;;;;;;13.40;10.60;;;;;;;;;;10487613;27;20047;-62
2021/01/05 10:19:18;;;;;;;9.68;8.10;;;;;;;;;;10486863;27;20507;-62
2021/01/05 10:24:16;;;;;;;6.85;5.93;;;;;;;;;;10487844;27;20039;-62
2021/01/05 10:29:13;;;;;;;6.65;5.95;;;;;;;;;;10487480;27;20085;-63
2021/01/05 10:34:12;;;;;;;9.65;7.05;;;;;;;;;;10487657;27;20078;-63
2021/01/05 10:39:11;;;;;;;8.15;6.50;;;;;;;;;;10486234;27;20411;-63
2021/01/05 10:44:09;;;;;;;8.32;6.65;;;;;;;;;;10486583;27;20057;-63
2021/01/05 10:49:06;;;;;;;5.90;4.57;;;;;;;;;;10485612;27;20072;-63
2021/01/05 10:54:05;;;;;;;14.43;9.68;;;;;;;;;;10485911;27;20041;-63
2021/01/05 10:59:05;;;;;;;13.70;8.35;;;;;;;;;;10485965;27;20043;-62
2021/01/05 11:04:02;;;;;;;19.52;11.10;;;;;;;;;;10485835;27;20501;-62
2021/01/05 11:09:07;;;;;;;13.63;8.30;;;;;;;;;;10467009;27;20400;-62
2021/01/05 11:14:04;;;;;;;17.90;11.13;;;;;;;;;;10485238;27;20082;-63
2021/01/05 11:19:02;;;;;;;29.20;18.73;;;;;;;;;;10485599;27;20042;-63
2021/01/05 11:23:59;;;;;;;11.05;6.88;;;;;;;;;;10485866;27;20035;-62
2021/01/05 11:28:57;;;;;;;5.70;4.65;;;;;;;;;;10484076;27;20077;-61
2021/01/05 11:33:54;;;;;;;8.95;5.93;;;;;;;;;;10484842;27;20049;-62
2021/01/05 11:38:55;;;;;;;11.30;6.97;;;;;;;;;;10483871;27;20491;-62
2021/01/05 11:43:52;;;;;;;12.85;7.95;;;;;;;;;;10483869;27;20054;-62
2021/01/05 11:48:52;;;;;;;9.27;6.28;;;;;;;;;;10483689;27;20081;-62
2021/01/05 11:53:49;;;;;;;9.13;7.60;;;;;;;;;;10484825;27;20045;-62
2021/01/05 11:58:46;;;;;;;8.68;7.05;;;;;;;;;;10482458;27;20054;-62
2021/01/05 12:03:44;;;;;;;9.98;7.53;;;;;;;;;;10483544;27;20055;-62
2021/01/05 12:08:42;;;;;;;11.40;6.28;;;;;;;;;;10482895;27;20053;-62
2021/01/05 12:13:39;;;;;;;7.38;6.15;;;;;;;;;;10483388;27;20511;-62
2021/01/05 12:18:37;;;;;;;7.35;5.35;;;;;;;;;;10481830;27;20169;-61
2021/01/05 12:23:34;;;;;;;9.95;7.55;;;;;;;;;;10482534;27;20046;-62
2021/01/05 12:28:33;;;;;;;11.82;7.43;;;;;;;;;;10482373;27;20078;-62
2021/01/05 12:33:30;;;;;;;18.98;11.60;;;;;;;;;;10483011;27;20039;-62
2021/01/05 12:38:27;;;;;;;12.63;8.32;;;;;;;;;;10482786;27;20447;-62
2021/01/05 12:43:24;;;;;;;14.88;10.88;;;;;;;;;;10481943;27;20424;-62
2021/01/05 12:48:22;;;;;;;16.85;12.30;;;;;;;;;;10481755;27;20456;-63
2021/01/05 12:53:20;;;;;;;9.77;7.75;;;;;;;;;;10482636;27;20065;-63
2021/01/05 12:58:17;;;;;;;10.90;8.70;;;;;;;;;;10480927;27;20085;-63
2021/01/05 13:03:14;;;;;;;11.63;9.00;;;;;;;;;;10481708;27;20062;-63
2021/01/05 13:08:12;;;;;;;15.60;9.65;;;;;;;;;;10481524;27;20078;-63
2021/01/05 13:13:10;;;;;;;10.40;6.97;;;;;;;;;;10489296;27;20465;-63
2021/01/05 13:18:07;;;;;;;12.93;9.32;;;;;;;;;;10490323;27;20043;-62
2021/01/05 13:23:04;;;;;;;15.88;12.00;;;;;;;;;;10488772;27;20420;-61
2021/01/05 13:28:03;;;;;;;14.48;10.88;;;;;;;;;;10489493;27;20070;-62
2021/01/05 13:33:01;;;;;;;32.90;21.42;;;;;;;;;;10488905;27;20047;-62
2021/01/05 13:37:58;;;;;;;22.50;14.80;;;;;;;;;;10489460;27;20039;-63
2021/01/05 13:42:56;;;;;;;25.08;15.30;;;;;;;;;;10488846;27;20058;-61
2021/01/05 13:47:59;;;;;;;27.80;17.95;;;;;;;;;;10489268;27;20070;-62
2021/01/05 13:52:56;;;;;;;20.95;13.63;;;;;;;;;;10487654;27;20065;-62
2021/01/05 13:57:53;;;;;;;18.08;13.32;;;;;;;;;;10488485;27;20037;-62
2021/01/05 14:02:51;;;;;;;25.52;18.85;;;;;;;;;;10488201;27;20530;-63
2021/01/05 14:07:49;;;;;;;16.75;13.52;;;;;;;;;;10488212;27;20074;-63
2021/01/05 14:12:47;;;;;;;19.80;14.50;;;;;;;;;;10487919;27;20046;-63
2021/01/05 14:17:44;;;;;;;13.02;11.63;;;;;;;;;;10487344;27;20046;-63
2021/01/05 14:22:42;;;;;;;13.07;9.32;;;;;;;;;;10486149;27;20042;-63
2021/01/05 14:27:40;;;;;;;15.30;12.60;;;;;;;;;;10487235;27;20506;-63
2021/01/05 14:32:38;;;;;;;38.17;26.95;;;;;;;;;;10486934;27;20050;-63
2021/01/05 14:37:35;;;;;;;40.58;25.63;;;;;;;;;;10486285;27;20039;-63
2021/01/05 14:42:32;;;;;;;59.80;32.30;;;;;;;;;;10486700;27;20059;-64
2021/01/05 14:47:31;;;;;;;101.13;50.55;;;;;;;;;;10485381;27;20081;-62
2021/01/05 14:52:28;;;;;;;39.17;25.13;;;;;;;;;;10485639;27;20046;-63
2021/01/05 14:57:25;;;;;;;31.88;19.02;;;;;;;;;;10486002;27;20051;-63
2021/01/05 15:02:22;;;;;;;24.88;16.25;;;;;;;;;;10485402;27;20457;-63
2021/01/05 15:07:21;;;;;;;50.05;29.13;;;;;;;;;;10485775;27;20085;-62
2021/01/05 15:12:19;;;;;;;296.83;136.98;;;;;;;;;;10485016;27;20043;-63
2021/01/05 15:17:16;;;;;;;108.53;55.95;;;;;;;;;;10485395;27;20046;-62
2021/01/05 15:22:13;;;;;;;32.65;22.10;;;;;;;;;;10484892;27;20046;-63
2021/01/05 15:27:11;;;;;;;116.53;57.58;;;;;;;;;;10484414;27;20081;-63
2021/01/05 15:32:11;;;;;;;53.63;29.58;;;;;;;;;;10484355;27;20073;-62
2021/01/05 15:37:08;;;;;;;246.43;121.45;;;;;;;;;;10484306;27;20092;-62
2021/01/05 15:42:06;;;;;;;169.68;80.60;;;;;;;;;;10483523;27;20615;-62
2021/01/05 15:47:08;;;;;;;160.70;91.72;;;;;;;;;;10483270;27;20050;-62
2021/01/05 15:52:05;;;;;;;231.75;132.07;;;;;;;;;;10483873;27;20423;-62
2021/01/05 15:57:03;;;;;;;233.85;120.85;;;;;;;;;;10479983;27;20050;-62
2021/01/05 16:02:01;;;;;;;182.77;101.15;;;;;;;;;;10412418;27;20081;-63
2021/01/05 16:06:59;;;;;;;105.68;55.03;;;;;;;;;;10404259;27;20094;-62
2021/01/05 16:11:56;;;;;;;92.20;55.03;;;;;;;;;;10406125;27;20070;-62
2021/01/05 16:16:54;;;;;;;89.18;52.30;;;;;;;;;;10430910;27;20090;-63
2021/01/05 16:21:51;;;;;;;53.42;34.38;;;;;;;;;;10439448;27;20424;-63
2021/01/05 16:26:51;;;;;;;29.83;22.95;;;;;;;;;;10439660;27;20047;-63
2021/01/05 16:31:50;;;;;;;28.63;21.90;;;;;;;;;;10439753;27;20079;-63
2021/01/05 16:36:48;;;;;;;42.38;32.42;;;;;;;;;;10440796;27;20054;-63
2021/01/05 16:41:45;;;;;;;36.95;27.25;;;;;;;;;;10453019;27;20201;-63
2021/01/05 16:46:44;;;;;;;24.90;19.88;;;;;;;;;;10481059;27;20073;-62
2021/01/05 16:51:42;;;;;;;54.35;41.65;;;;;;;;;;10482199;27;20491;-63
2021/01/05 16:56:39;;;;;;;39.03;28.95;;;;;;;;;;10481860;27;20047;-62
2021/01/05 17:01:37;;;;;;;38.67;27.90;;;;;;;;;;10481721;27;20046;-63
2021/01/05 17:06:43;;;;;;;66.20;39.42;;;;;;;;;;10481999;27;20506;-63
2021/01/05 17:11:41;;;;;;;37.80;28.15;;;;;;;;;;10467119;27;20078;-62
2021/01/05 17:16:42;;;;;;;36.42;30.83;;;;;;;;;;10482351;27;20047;-63
2021/01/05 17:21:39;;;;;;;23.80;20.40;;;;;;;;;;10482022;27;20460;-62
2021/01/05 17:26:38;;;;;;;20.35;15.38;;;;;;;;;;10480552;27;20074;-62
2021/01/05 17:31:36;;;;;;;16.05;11.90;;;;;;;;;;10480410;27;20081;-62
2021/01/05 17:36:33;;;;;;;13.60;11.27;;;;;;;;;;10481075;27;20059;-62
2021/01/05 17:41:30;;;;;;;19.98;16.45;;;;;;;;;;10480580;27;20104;-63
2021/01/05 17:46:30;;;;;;;42.17;25.85;;;;;;;;;;10480507;27;20058;-63
2021/01/05 17:51:27;;;;;;;26.33;18.42;;;;;;;;;;10481079;27;20455;-62
2021/01/05 17:56:24;;;;;;;20.33;15.55;;;;;;;;;;10483039;27;20077;-64
2021/01/05 18:01:21;;;;;;;21.55;16.33;;;;;;;;;;10489131;27;20108;-62
2021/01/05 18:06:22;;;;;;;13.93;11.85;;;;;;;;;;10487503;27;20034;-61
2021/01/05 18:11:19;;;;;;;19.25;14.85;;;;;;;;;;10487518;27;20530;-62
2021/01/05 18:16:18;;;;;;;13.95;11.43;;;;;;;;;;10487606;27;20074;-64
2021/01/05 18:21:15;;;;;;;12.90;9.18;;;;;;;;;;10487074;27;20104;-62
2021/01/05 18:26:14;;;;;;;11.30;8.75;;;;;;;;;;10487016;27;20050;-64
2021/01/05 18:31:13;;;;;;;15.40;10.07;;;;;;;;;;10487677;27;20082;-63
2021/01/05 18:36:10;;;;;;;13.13;11.15;;;;;;;;;;10486707;27;20039;-62
2021/01/05 18:41:08;;;;;;;14.88;11.90;;;;;;;;;;10486458;27;20058;-63
2021/01/05 18:46:06;;;;;;;50.40;40.50;;;;;;;;;;10487079;27;20031;-63
2021/01/05 18:51:04;;;;;;;34.90;24.08;;;;;;;;;;10485021;27;20093;-62
2021/01/05 18:56:01;;;;;;;25.90;16.08;;;;;;;;;;10485930;27;20439;-63
2021/01/05 19:00:58;;;;;;;24.52;15.40;;;;;;;;;;10484690;27;20531;-62
2021/01/05 19:05:57;;;;;;;22.75;15.27;;;;;;;;;;10484998;27;20469;-63
2021/01/05 19:10:56;;;;;;;44.20;22.40;;;;;;;;;;10460024;27;20118;-63
2021/01/05 19:15:53;;;;;;;42.90;21.25;;;;;;;;;;10480937;27;20082;-64
2021/01/05 19:20:50;;;;;;;49.78;24.77;;;;;;;;;;10481455;27;20144;-62
2021/01/05 19:25:49;;;;;;;35.83;17.17;;;;;;;;;;10483378;27;20047;-62
2021/01/05 19:30:47;;;;;;;47.75;21.45;;;;;;;;;;10476837;27;20085;-62
2021/01/05 19:35:44;;;;;;;43.55;20.38;;;;;;;;;;10471684;27;20057;-60
2021/01/05 19:40:44;;;;;;;45.03;21.10;;;;;;;;;;10484041;27;20089;-63
2021/01/05 19:45:42;;;;;;;49.53;21.92;;;;;;;;;;10484933;27;20312;-62
2021/01/05 19:50:40;;;;;;;40.75;21.02;;;;;;;;;;10483961;27;20078;-62
2021/01/05 19:55:38;;;;;;;37.97;19.67;;;;;;;;;;10483723;27;20039;-62
2021/01/05 20:00:35;;;;;;;34.78;19.13;;;;;;;;;;10484181;27;20043;-62
2021/01/05 20:05:34;;;;;;;60.58;24.30;;;;;;;;;;10483875;27;20563;-63
2021/01/05 20:10:32;;;;;;;34.30;16.52;;;;;;;;;;10482816;27;20089;-62
2021/01/05 20:15:30;;;;;;;53.97;24.65;;;;;;;;;;10483700;27;20042;-63
2021/01/05 20:20:29;;;;;;;54.25;24.00;;;;;;;;;;10482949;27;20085;-62
2021/01/05 20:25:27;;;;;;;48.38;21.88;;;;;;;;;;10482311;27;20070;-61
2021/01/05 20:30:26;;;;;;;44.08;18.60;;;;;;;;;;10481299;27;20086;-63
2021/01/05 20:35:24;;;;;;;27.23;16.05;;;;;;;;;;10479241;27;20074;-61
2021/01/05 20:40:23;;;;;;;28.90;15.13;;;;;;;;;;10482641;27;20039;-63
2021/01/05 20:45:23;;;;;;;23.48;14.18;;;;;;;;;;10478298;27;20081;-62
2021/01/05 20:50:21;;;;;;;22.63;14.10;;;;;;;;;;10480013;27;20074;-62
2021/01/05 20:55:19;;;;;;;26.63;15.38;;;;;;;;;;10482928;27;20073;-63
2021/01/05 21:00:18;;;;;;;45.05;24.35;;;;;;;;;;10482723;27;20047;-63
2021/01/05 21:05:19;;;;;;;29.02;17.27;;;;;;;;;;10481705;27;20522;-61
2021/01/05 21:10:17;;;;;;;24.35;14.73;;;;;;;;;;10482421;27;20074;-62
2021/01/05 21:15:15;;;;;;;25.35;15.35;;;;;;;;;;10463433;27;20053;-61
2021/01/05 21:20:14;;;;;;;25.42;15.15;;;;;;;;;;10482231;27;20424;-63
2021/01/05 21:25:14;;;;;;;20.52;12.30;;;;;;;;;;10481564;27;20051;-63
2021/01/05 21:30:13;;;;;;;20.88;12.43;;;;;;;;;;10482513;27;20081;-62
2021/01/05 21:35:12;;;;;;;29.20;16.33;;;;;;;;;;10470493;27;20046;-62
2021/01/05 21:40:10;;;;;;;29.55;16.77;;;;;;;;;;10488867;27;20054;-62
2021/01/05 21:45:10;;;;;;;32.88;17.80;;;;;;;;;;10489745;27;20449;-62
2021/01/05 21:50:08;;;;;;;27.23;16.15;;;;;;;;;;10486495;27;20078;-63
2021/01/05 21:55:06;;;;;;;138.35;77.43;;;;;;;;;;10485119;27;20132;-63
2021/01/05 22:00:05;;;;;;;39.80;21.38;;;;;;;;;;10483480;27;20086;-62
2021/01/05 22:05:04;;;;;;;32.65;15.68;;;;;;;;;;10485694;27;20411;-62
2021/01/05 22:10:01;;;;;;;28.55;15.63;;;;;;;;;;10488617;27;20620;-62
2021/01/05 22:14:59;;;;;;;23.98;14.07;;;;;;;;;;10487897;27;20536;-63
2021/01/05 22:19:56;;;;;;;24.83;16.02;;;;;;;;;;10488401;27;20046;-63
2021/01/05 22:24:54;;;;;;;15.98;11.80;;;;;;;;;;10487161;27;20489;-62
2021/01/05 22:29:52;;;;;;;23.00;13.02;;;;;;;;;;10486862;27;20081;-62
2021/01/05 22:34:49;;;;;;;16.27;11.20;;;;;;;;;;10487120;27;20082;-62
2021/01/05 22:39:46;;;;;;;13.07;9.88;;;;;;;;;;10487300;27;20042;-62
2021/01/05 22:44:44;;;;;;;9.20;7.65;;;;;;;;;;10486021;27;20082;-62
2021/01/05 22:49:41;;;;;;;8.35;7.50;;;;;;;;;;10486815;27;20046;-62
2021/01/05 22:54:39;;;;;;;8.88;6.60;;;;;;;;;;10486631;27;20407;-63
2021/01/05 22:59:36;;;;;;;12.57;10.90;;;;;;;;;;10486462;27;20070;-62
2021/01/05 23:04:34;;;;;;;7.55;6.40;;;;;;;;;;10486567;27;20058;-63
2021/01/05 23:09:32;;;;;;;8.45;6.70;;;;;;;;;;10485456;27;20103;-62
2021/01/05 23:14:29;;;;;;;11.02;7.50;;;;;;;;;;10485373;27;20516;-63
2021/01/05 23:19:26;;;;;;;8.25;6.57;;;;;;;;;;10484955;27;20070;-62
2021/01/05 23:24:24;;;;;;;7.38;6.50;;;;;;;;;;10484895;27;20046;-63
2021/01/05 23:29:22;;;;;;;7.45;6.75;;;;;;;;;;10485243;27;20070;-62
2021/01/05 23:34:19;;;;;;;8.48;6.70;;;;;;;;;;10485293;27;20039;-62
2021/01/05 23:39:18;;;;;;;10.27;8.30;;;;;;;;;;10484809;27;20054;-63
2021/01/05 23:44:16;;;;;;;11.52;8.32;;;;;;;;;;10483584;27;20078;-63
2021/01/05 23:49:13;;;;;;;8.85;6.75;;;;;;;;;;10484366;27;20493;-62
2021/01/05 23:54:12;;;;;;;7.10;6.22;;;;;;;;;;10483931;27;20077;-62
2021/01/05 23:59:09;;;;;;;7.40;6.30;;;;;;;;;;10484072;27;20034;-62
